createdAt,value
2022-11-29T00:01:15.692Z,8.20
2022-11-29T00:03:43.340Z,8.40
2022-11-29T00:06:18.972Z,8.52
2022-11-29T00:08:48.105Z,7.93
2022-11-29T00:11:40.751Z,8.57
2022-11-29T00:14:36.918Z,8.60
2022-11-29T00:17:48.694Z,7.53
2022-11-29T00:20:40.411Z,8.02
2022-11-29T00:23:15.094Z,8.82
2022-11-29T00:25:41.752Z,8.05
2022-11-29T00:28:14.600Z,8.73
2022-11-29T00:31:15.965Z,8.32
2022-11-29T00:33:48.362Z,7.88
2022-11-29T00:36:40.370Z,8.32
2022-11-29T00:39:12.181Z,8.95
2022-11-29T00:41:42.752Z,8.35
2022-11-29T00:44:13.901Z,9.15
2022-11-29T00:46:42.087Z,9.55
2022-11-29T00:49:08.857Z,9.07
2022-11-29T00:52:00.239Z,10.18
2022-11-29T00:54:26.825Z,8.60
2022-11-29T00:56:59.270Z,9.68
2022-11-29T00:59:25.903Z,8.68
2022-11-29T01:01:52.580Z,9.00
2022-11-29T01:04:19.392Z,8.32
2022-11-29T01:06:46.016Z,8.43
2022-11-29T01:09:13.669Z,8.88
2022-11-29T01:11:40.341Z,8.25
2022-11-29T01:14:06.903Z,9.20
2022-11-29T01:16:33.768Z,8.65
2022-11-29T01:19:00.658Z,9.25
2022-11-29T01:21:27.497Z,8.70
2022-11-29T01:23:55.479Z,9.00
2022-11-29T01:26:29.187Z,9.23
2022-11-29T01:28:56.852Z,8.27
2022-11-29T01:31:26.571Z,8.80
2022-11-29T01:33:55.202Z,8.23
2022-11-29T01:36:26.230Z,8.65
2022-11-29T01:38:53.296Z,8.27
2022-11-29T01:41:25.423Z,8.30
2022-11-29T01:44:00.227Z,8.63
2022-11-29T01:46:33.249Z,8.15
2022-11-29T01:49:11.660Z,9.48
2022-11-29T01:52:01.747Z,7.70
2022-11-29T01:54:29.985Z,8.77
2022-11-29T01:56:57.661Z,8.65
2022-11-29T01:59:29.809Z,8.55
2022-11-29T02:02:03.325Z,8.25
2022-11-29T02:04:34.942Z,8.27
2022-11-29T02:07:03.291Z,7.85
2022-11-29T02:09:30.783Z,7.75
2022-11-29T02:12:31.554Z,9.07
2022-11-29T02:15:36.758Z,8.43
2022-11-29T02:18:44.684Z,8.25
2022-11-29T02:21:32.036Z,8.25
2022-11-29T02:24:44.510Z,8.65
2022-11-29T02:27:32.921Z,8.25
2022-11-29T02:30:35.258Z,9.13
2022-11-29T02:33:22.972Z,8.00
2022-11-29T02:36:01.306Z,7.63
2022-11-29T02:39:15.532Z,8.70
2022-11-29T02:41:49.019Z,8.70
2022-11-29T02:44:27.744Z,8.25
2022-11-29T02:47:07.053Z,8.40
2022-11-29T02:49:41.846Z,8.05
2022-11-29T02:52:17.486Z,8.63
2022-11-29T02:55:03.852Z,7.82
2022-11-29T02:57:46.019Z,8.45
2022-11-29T03:00:20.442Z,8.27
2022-11-29T03:02:56.083Z,9.05
2022-11-29T03:05:22.630Z,8.13
2022-11-29T03:08:26.350Z,7.72
2022-11-29T03:10:58.999Z,7.90
2022-11-29T03:14:07.078Z,8.18
2022-11-29T03:16:54.928Z,8.50
2022-11-29T03:19:21.379Z,8.63
2022-11-29T03:22:09.803Z,8.82
2022-11-29T03:24:56.304Z,8.43
2022-11-29T03:27:44.370Z,7.88
2022-11-29T03:30:13.828Z,8.10
2022-11-29T03:32:56.772Z,8.55
2022-11-29T03:36:04.845Z,7.75
2022-11-29T03:38:44.365Z,8.38
2022-11-29T03:41:27.769Z,8.50
2022-11-29T03:44:07.123Z,7.93
2022-11-29T03:46:52.509Z,9.13
2022-11-29T03:49:34.560Z,7.45
2022-11-29T03:52:01.169Z,8.15
2022-11-29T03:55:00.619Z,8.05
2022-11-29T03:57:53.260Z,8.70
2022-11-29T04:00:20.179Z,8.57
2022-11-29T04:02:53.347Z,7.88
2022-11-29T04:05:41.699Z,8.25
2022-11-29T04:08:31.856Z,8.00
2022-11-29T04:11:20.339Z,7.60
2022-11-29T04:14:03.269Z,7.13
2022-11-29T04:17:07.306Z,7.63
2022-11-29T04:20:09.384Z,7.40
2022-11-29T04:23:14.793Z,8.07
2022-11-29T04:26:18.627Z,7.75
2022-11-29T04:28:57.424Z,7.72
2022-11-29T04:31:33.179Z,8.63
2022-11-29T04:34:21.550Z,8.70
2022-11-29T04:36:51.201Z,8.00
2022-11-29T04:39:17.647Z,7.93
2022-11-29T04:42:32.788Z,8.13
2022-11-29T04:45:17.976Z,7.85
2022-11-29T04:47:54.951Z,7.60
2022-11-29T04:50:43.307Z,7.45
2022-11-29T04:53:46.512Z,7.13
2022-11-29T04:56:25.141Z,6.68
2022-11-29T04:59:16.131Z,6.43
2022-11-29T05:02:01.099Z,6.07
2022-11-29T05:04:46.621Z,5.95
2022-11-29T05:07:24.661Z,5.60
2022-11-29T05:09:51.348Z,5.70
2022-11-29T05:12:26.910Z,6.30
2022-11-29T05:15:27.727Z,6.10
2022-11-29T05:18:15.548Z,5.95
2022-11-29T05:20:56.750Z,5.80
2022-11-29T05:23:51.500Z,5.60
2022-11-29T05:26:27.238Z,5.88
2022-11-29T05:29:03.968Z,5.18
2022-11-29T05:31:55.318Z,5.40
2022-11-29T05:34:35.146Z,4.90
2022-11-29T05:37:08.523Z,5.88
2022-11-29T05:39:41.548Z,5.13
2022-11-29T05:42:50.649Z,5.28
2022-11-29T05:45:50.036Z,5.47
2022-11-29T05:48:31.688Z,5.07
2022-11-29T05:51:22.648Z,6.10
2022-11-29T05:54:04.772Z,5.97
2022-11-29T05:57:05.950Z,5.50
2022-11-29T05:59:34.387Z,5.57
2022-11-29T06:02:27.965Z,5.97
2022-11-29T06:08:00.882Z,6.22
2022-11-29T06:10:33.676Z,7.20
2022-11-29T06:13:22.078Z,7.38
2022-11-29T06:16:03.979Z,7.65
2022-11-29T06:18:33.529Z,7.28
2022-11-29T06:21:06.118Z,6.75
2022-11-29T06:23:48.459Z,7.57
2022-11-29T06:26:29.195Z,7.60
2022-11-29T06:29:33.221Z,6.95
2022-11-29T06:32:22.346Z,7.72
2022-11-29T06:35:09.364Z,7.15
2022-11-29T06:37:39.633Z,7.70
2022-11-29T06:40:10.169Z,8.18
2022-11-29T06:42:36.732Z,9.25
2022-11-29T06:45:05.076Z,7.90
2022-11-29T06:48:00.462Z,9.13
2022-11-29T06:50:46.107Z,8.02
2022-11-29T06:53:21.717Z,7.90
2022-11-29T06:56:18.137Z,8.48
2022-11-29T06:59:03.177Z,7.57
2022-11-29T07:01:45.670Z,7.38
2022-11-29T07:04:34.242Z,8.27
2022-11-29T07:07:01.648Z,7.97
2022-11-29T07:09:34.460Z,8.90
2022-11-29T07:12:01.658Z,7.88
2022-11-29T07:14:28.534Z,7.88
2022-11-29T07:17:21.331Z,8.85
2022-11-29T07:20:01.538Z,7.40
2022-11-29T07:22:31.105Z,7.00
2022-11-29T07:25:15.648Z,7.00
2022-11-29T07:27:49.495Z,7.90
2022-11-29T07:30:20.412Z,7.13
2022-11-29T07:33:05.650Z,6.50
2022-11-29T07:35:44.349Z,6.40
2022-11-29T07:38:25.916Z,6.55
2022-11-29T07:41:18.748Z,6.18
2022-11-29T07:43:51.667Z,6.10
2022-11-29T07:46:18.424Z,5.28
2022-11-29T07:49:09.388Z,6.00
2022-11-29T07:51:36.214Z,6.00
2022-11-29T07:54:03.085Z,6.65
2022-11-29T07:56:41.685Z,5.30
2022-11-29T07:59:12.771Z,5.38
2022-11-29T08:01:39.876Z,6.40
2022-11-29T08:04:08.084Z,5.90
2022-11-29T08:06:40.584Z,5.55
2022-11-29T08:09:07.585Z,5.60
2022-11-29T08:11:34.291Z,5.45
2022-11-29T08:14:01.755Z,5.53
2022-11-29T08:16:28.447Z,5.05
2022-11-29T08:18:55.067Z,4.38
2022-11-29T08:21:21.693Z,5.20
2022-11-29T08:23:49.604Z,4.85
2022-11-29T08:26:17.411Z,5.13
2022-11-29T08:28:44.627Z,4.70
2022-11-29T08:31:13.059Z,4.50
2022-11-29T08:33:42.584Z,4.43
2022-11-29T08:36:11.703Z,4.75
2022-11-29T08:38:38.247Z,4.50
2022-11-29T08:41:06.474Z,4.65
2022-11-29T08:43:33.368Z,4.80
2022-11-29T08:46:00.060Z,4.50
2022-11-29T08:48:26.965Z,5.70
2022-11-29T08:50:54.811Z,5.03
2022-11-29T08:53:41.487Z,5.68
2022-11-29T08:56:53.321Z,5.13
2022-11-29T08:59:00.643Z,6.47
2022-11-29T09:01:27.378Z,6.22
2022-11-29T09:03:59.809Z,5.72
2022-11-29T09:06:41.274Z,6.80
2022-11-29T09:09:07.987Z,5.47
2022-11-29T09:11:36.265Z,5.82
2022-11-29T09:16:33.619Z,5.53
2022-11-29T09:19:00.430Z,5.82
2022-11-29T09:21:27.948Z,5.93
2022-11-29T09:23:59.039Z,6.32
2022-11-29T09:26:28.026Z,6.15
2022-11-29T09:28:57.855Z,5.70
2022-11-29T09:31:24.590Z,6.75
2022-11-29T09:33:51.189Z,6.28
2022-11-29T09:36:17.745Z,6.55
2022-11-29T09:38:44.760Z,6.93
2022-11-29T09:41:25.190Z,6.47
2022-11-29T09:43:54.803Z,5.70
2022-11-29T09:46:21.697Z,6.45
2022-11-29T09:49:28.649Z,5.93
2022-11-29T09:51:58.266Z,5.88
2022-11-29T09:54:31.332Z,6.88
2022-11-29T09:56:58.194Z,6.22
2022-11-29T09:59:34.306Z,6.68
2022-11-29T10:02:15.941Z,6.05
2022-11-29T10:04:56.615Z,5.95
2022-11-29T10:07:40.807Z,6.47
2022-11-29T10:10:15.164Z,5.53
2022-11-29T10:12:49.088Z,6.82
2022-11-29T10:15:22.334Z,6.03
2022-11-29T10:18:01.025Z,6.22
2022-11-29T10:20:33.377Z,6.38
2022-11-29T10:23:11.400Z,5.75
2022-11-29T10:25:44.342Z,5.57
2022-11-29T10:28:15.164Z,6.80
2022-11-29T10:30:43.172Z,6.05
2022-11-29T10:35:44.123Z,6.03
2022-11-29T10:38:30.310Z,5.90
2022-11-29T10:41:04.984Z,5.72
2022-11-29T10:43:31.840Z,5.43
2022-11-29T10:45:58.751Z,6.60
2022-11-29T10:48:28.807Z,6.43
2022-11-29T10:50:55.288Z,6.53
2022-11-29T10:53:36.079Z,5.65
2022-11-29T10:56:17.229Z,6.97
2022-11-29T10:59:06.115Z,6.15
2022-11-29T11:01:43.502Z,6.68
2022-11-29T11:04:30.402Z,6.57
2022-11-29T11:07:01.134Z,6.00
2022-11-29T11:09:50.905Z,7.15
2022-11-29T11:12:23.581Z,7.47
2022-11-29T11:14:51.423Z,7.78
2022-11-29T11:17:25.921Z,7.75
2022-11-29T11:19:58.664Z,8.05
2022-11-29T11:22:25.852Z,8.75
2022-11-29T11:24:58.844Z,6.55
2022-11-29T11:27:37.389Z,7.35
2022-11-29T11:30:06.483Z,8.57
2022-11-29T11:32:33.019Z,7.60
2022-11-29T11:35:01.774Z,7.75
2022-11-29T11:37:32.796Z,7.03
2022-11-29T11:40:18.356Z,7.28
2022-11-29T11:42:45.045Z,8.27
2022-11-29T11:45:11.517Z,7.88
2022-11-29T11:47:43.088Z,7.85
2022-11-29T11:50:24.965Z,8.40
2022-11-29T11:52:53.851Z,7.95
2022-11-29T11:55:39.682Z,8.10
2022-11-29T11:58:16.314Z,7.55
2022-11-29T12:01:04.085Z,7.43
2022-11-29T12:03:34.980Z,8.35
2022-11-29T12:06:30.038Z,6.97
2022-11-29T12:09:35.243Z,7.15
2022-11-29T12:12:11.621Z,6.47
2022-11-29T12:15:01.679Z,7.15
2022-11-29T12:17:37.266Z,6.85
2022-11-29T12:20:19.123Z,6.57
2022-11-29T12:22:50.731Z,6.32
2022-11-29T12:25:27.847Z,6.35
2022-11-29T12:27:54.429Z,6.20
2022-11-29T12:30:21.096Z,6.45
2022-11-29T12:32:48.413Z,6.10
2022-11-29T12:35:23.635Z,6.30
2022-11-29T12:37:56.486Z,6.53
2022-11-29T12:40:44.571Z,6.50
2022-11-29T12:43:26.529Z,6.50
2022-11-29T12:46:09.150Z,6.72
2022-11-29T12:48:47.810Z,6.93
2022-11-29T12:51:41.983Z,5.82
2022-11-29T12:54:36.181Z,6.13
2022-11-29T12:57:15.642Z,6.38
2022-11-29T12:59:57.488Z,7.50
2022-11-29T13:03:01.598Z,6.97
2022-11-29T13:05:31.182Z,6.70
2022-11-29T13:08:22.005Z,5.90
2022-11-29T13:11:20.986Z,6.53
2022-11-29T13:14:34.541Z,6.63
2022-11-29T13:17:04.051Z,6.32
2022-11-29T13:19:33.521Z,6.13
2022-11-29T13:22:15.704Z,6.70
2022-11-29T13:25:03.958Z,6.78
2022-11-29T13:27:34.735Z,6.22
2022-11-29T13:30:01.934Z,6.22
2022-11-29T13:32:34.524Z,6.30
2022-11-29T13:35:11.646Z,6.10
2022-11-29T13:37:45.078Z,6.20
2022-11-29T13:40:37.773Z,6.15
2022-11-29T13:43:24.765Z,5.53
2022-11-29T13:46:10.319Z,6.47
2022-11-29T13:48:47.840Z,5.88
2022-11-29T13:51:31.181Z,5.88
2022-11-29T13:54:01.000Z,5.93
2022-11-29T13:56:36.138Z,6.07
2022-11-29T13:59:08.437Z,6.35
2022-11-29T14:01:54.034Z,6.32
2022-11-29T14:04:28.007Z,5.85
2022-11-29T14:07:08.266Z,5.95
2022-11-29T14:10:05.071Z,5.53
2022-11-29T14:12:51.061Z,5.78
2022-11-29T14:15:28.730Z,5.53
2022-11-29T14:17:59.622Z,4.82
2022-11-29T14:20:28.321Z,5.15
2022-11-29T14:23:04.177Z,5.68
2022-11-29T14:25:51.123Z,5.45
2022-11-29T14:28:21.579Z,5.22
2022-11-29T14:30:52.932Z,5.93
2022-11-29T14:33:31.636Z,5.50
2022-11-29T14:36:20.167Z,4.38
2022-11-29T14:39:01.285Z,5.10
2022-11-29T14:42:06.198Z,4.82
2022-11-29T14:44:34.440Z,4.82
2022-11-29T14:47:07.261Z,4.95
2022-11-29T14:49:43.021Z,5.78
2022-11-29T14:52:15.735Z,5.00
2022-11-29T14:55:05.878Z,4.38
2022-11-29T14:57:47.906Z,4.68
2022-11-29T15:00:16.103Z,5.57
2022-11-29T15:03:04.041Z,6.18
2022-11-29T15:05:50.921Z,5.55
2022-11-29T15:08:26.707Z,5.50
2022-11-29T15:10:57.169Z,5.28
2022-11-29T15:13:27.973Z,5.30
2022-11-29T15:16:16.003Z,5.43
2022-11-29T15:19:06.024Z,5.60
2022-11-29T15:21:50.860Z,5.07
2022-11-29T15:24:18.008Z,5.18
2022-11-29T15:27:08.288Z,5.07
2022-11-29T15:29:34.912Z,5.18
2022-11-29T15:32:05.605Z,5.28
2022-11-29T15:34:37.458Z,5.78
2022-11-29T15:37:04.204Z,5.10
2022-11-29T15:39:35.742Z,5.45
2022-11-29T15:42:14.398Z,5.38
2022-11-29T15:44:46.262Z,5.80
2022-11-29T15:47:24.496Z,5.72
2022-11-29T15:49:52.611Z,6.30
2022-11-29T15:55:02.715Z,6.53
2022-11-29T15:57:31.656Z,5.57
2022-11-29T16:00:01.779Z,5.90
2022-11-29T16:02:31.044Z,6.45
2022-11-29T16:05:14.586Z,7.30
2022-11-29T16:07:41.756Z,6.18
2022-11-29T16:10:16.446Z,6.22
2022-11-29T16:12:56.120Z,6.00
2022-11-29T16:15:30.627Z,6.57
2022-11-29T16:18:13.822Z,6.85
2022-11-29T16:20:40.778Z,6.85
2022-11-29T16:23:13.002Z,6.65
2022-11-29T16:25:59.659Z,6.88
2022-11-29T16:28:33.816Z,6.40
2022-11-29T16:31:00.760Z,6.82
2022-11-29T16:33:27.497Z,6.32
2022-11-29T16:36:11.433Z,6.60
2022-11-29T16:38:44.124Z,6.80
2022-11-29T16:41:37.833Z,7.20
2022-11-29T16:44:06.399Z,6.97
2022-11-29T16:46:38.756Z,7.47
2022-11-29T16:49:30.358Z,6.57
2022-11-29T16:51:57.622Z,6.30
2022-11-29T16:54:27.370Z,7.18
2022-11-29T16:56:56.007Z,6.15
2022-11-29T16:59:27.305Z,7.30
2022-11-29T17:01:55.464Z,7.25
2022-11-29T17:04:23.734Z,7.38
2022-11-29T17:06:52.820Z,6.70
2022-11-29T17:09:26.000Z,7.18
2022-11-29T17:11:53.210Z,7.57
2022-11-29T17:14:19.863Z,7.93
2022-11-29T17:16:49.304Z,7.20
2022-11-29T17:19:16.097Z,7.85
2022-11-29T17:21:42.651Z,8.35
2022-11-29T17:24:14.199Z,8.20
2022-11-29T17:26:41.412Z,8.65
2022-11-29T17:29:13.197Z,8.45
2022-11-29T17:31:40.030Z,7.90
2022-11-29T17:34:06.729Z,9.07
2022-11-29T17:36:33.370Z,7.90
2022-11-29T17:39:00.537Z,7.80
2022-11-29T17:41:28.203Z,7.55
2022-11-29T17:43:55.811Z,7.55
2022-11-29T17:46:30.831Z,8.02
2022-11-29T17:49:01.967Z,7.43
2022-11-29T17:51:51.227Z,8.73
2022-11-29T17:54:15.445Z,8.75
2022-11-29T17:56:42.005Z,9.45
2022-11-29T17:59:08.549Z,8.20
2022-11-29T18:01:36.079Z,9.10
2022-11-29T18:04:05.157Z,8.95
2022-11-29T18:06:39.460Z,8.90
2022-11-29T18:09:07.879Z,10.13
2022-11-29T18:11:45.272Z,9.90
2022-11-29T18:14:16.564Z,10.38
2022-11-29T18:16:45.178Z,10.55
2022-11-29T18:19:14.074Z,10.40
2022-11-29T18:21:40.731Z,10.57
2022-11-29T18:24:08.847Z,10.45
2022-11-29T18:29:04.130Z,11.30
2022-11-29T18:31:33.172Z,11.20
2022-11-29T18:34:01.711Z,12.18
2022-11-29T18:36:30.978Z,11.07
2022-11-29T18:39:07.199Z,10.35
2022-11-29T18:41:34.100Z,12.15
2022-11-29T18:44:03.348Z,12.20
2022-11-29T18:46:32.402Z,11.20
2022-11-29T18:49:01.181Z,11.63
2022-11-29T18:51:29.275Z,13.52
2022-11-29T18:56:23.764Z,9.43
2022-11-29T18:58:59.199Z,11.52
2022-11-29T19:01:28.080Z,12.23
2022-11-29T19:03:56.665Z,12.30
2022-11-29T19:06:39.438Z,11.35
2022-11-29T19:09:11.108Z,12.15
2022-11-29T19:11:37.664Z,11.68
2022-11-29T19:14:05.704Z,12.70
2022-11-29T19:19:00.347Z,11.90
2022-11-29T19:21:28.874Z,11.85
2022-11-29T19:24:00.978Z,13.35
2022-11-29T19:26:30.133Z,12.32
2022-11-29T19:28:56.986Z,13.38
2022-11-29T19:31:25.126Z,12.00
2022-11-29T19:33:52.685Z,13.43
2022-11-29T19:36:24.819Z,11.77
2022-11-29T19:38:54.195Z,13.00
2022-11-29T19:41:22.125Z,12.35
2022-11-29T19:43:49.232Z,12.75
2022-11-29T19:46:21.184Z,12.52
2022-11-29T19:48:48.275Z,12.48
2022-11-29T19:51:18.674Z,12.38
2022-11-29T19:53:46.162Z,13.02
2022-11-29T19:56:15.309Z,13.13
2022-11-29T19:58:42.677Z,13.52
2022-11-29T20:01:24.907Z,12.45
2022-11-29T20:03:52.270Z,12.48
2022-11-29T20:06:18.995Z,12.88
2022-11-29T20:08:45.551Z,12.35
2022-11-29T20:11:13.387Z,12.70
2022-11-29T20:13:41.698Z,12.98
2022-11-29T20:16:10.631Z,12.60
2022-11-29T20:18:39.340Z,13.20
2022-11-29T20:21:14.072Z,11.90
2022-11-29T20:23:41.471Z,12.23
2022-11-29T20:26:13.523Z,12.10
2022-11-29T20:28:40.027Z,13.32
2022-11-29T20:31:08.160Z,14.13
2022-11-29T20:36:40.331Z,12.80
2022-11-29T20:39:34.992Z,12.52
2022-11-29T20:42:30.675Z,13.70
2022-11-29T20:44:57.502Z,13.23
2022-11-29T20:47:28.686Z,13.85
2022-11-29T20:49:56.104Z,13.57
2022-11-29T20:52:45.607Z,13.68
2022-11-29T20:55:12.189Z,14.30
2022-11-29T20:57:38.830Z,14.48
2022-11-29T21:00:13.799Z,12.98
2022-11-29T21:02:40.850Z,13.10
2022-11-29T21:05:08.531Z,13.23
2022-11-29T21:07:36.026Z,14.40
2022-11-29T21:10:02.878Z,13.90
2022-11-29T21:12:30.175Z,14.40
2022-11-29T21:14:57.394Z,13.73
2022-11-29T21:17:28.807Z,15.73
2022-11-29T21:20:00.271Z,15.25
2022-11-29T21:22:52.987Z,15.52
2022-11-29T21:25:48.826Z,15.40
2022-11-29T21:28:16.251Z,15.20
2022-11-29T21:30:43.669Z,14.63
2022-11-29T21:33:11.293Z,14.27
2022-11-29T21:35:39.842Z,14.07
2022-11-29T21:38:12.078Z,14.93
2022-11-29T21:40:38.675Z,13.82
2022-11-29T21:43:05.305Z,15.23
2022-11-29T21:45:31.873Z,15.68
2022-11-29T21:47:59.997Z,15.57
2022-11-29T21:52:53.096Z,14.95
2022-11-29T21:55:20.153Z,15.80
2022-11-29T21:57:46.782Z,15.65
2022-11-29T22:00:14.026Z,15.48
2022-11-29T22:02:40.988Z,15.43
2022-11-29T22:05:09.479Z,15.88
2022-11-29T22:07:36.122Z,15.27
2022-11-29T22:10:10.010Z,16.42
2022-11-29T22:12:45.906Z,16.48
2022-11-29T22:15:24.194Z,16.05
2022-11-29T22:17:53.212Z,15.60
2022-11-29T22:20:20.154Z,15.95
2022-11-29T22:22:48.492Z,16.35
2022-11-29T22:25:15.653Z,15.90
2022-11-29T22:27:42.225Z,15.77
2022-11-29T22:30:09.887Z,15.65
2022-11-29T22:32:36.426Z,15.82
2022-11-29T22:35:03.034Z,17.50
2022-11-29T22:37:29.597Z,15.93
2022-11-29T22:39:56.192Z,15.50
2022-11-29T22:42:25.410Z,15.48
2022-11-29T22:44:52.209Z,16.40
2022-11-29T22:47:18.838Z,15.55
2022-11-29T22:49:45.359Z,15.30
2022-11-29T22:52:11.942Z,15.95
2022-11-29T22:54:38.584Z,16.60
2022-11-29T22:57:05.265Z,14.68
2022-11-29T22:59:32.173Z,15.30
2022-11-29T23:01:58.792Z,15.00
2022-11-29T23:04:25.431Z,16.58
2022-11-29T23:06:52.020Z,15.65
2022-11-29T23:09:21.963Z,16.92
2022-11-29T23:11:53.904Z,16.85
2022-11-29T23:14:22.020Z,14.80
2022-11-29T23:19:16.061Z,14.65
2022-11-29T23:21:45.476Z,14.45
2022-11-29T23:24:12.862Z,14.90
2022-11-29T23:26:41.528Z,16.48
2022-11-29T23:29:12.048Z,14.73
2022-11-29T23:31:39.378Z,15.48
2022-11-29T23:34:06.039Z,16.63
2022-11-29T23:36:33.034Z,15.07
2022-11-29T23:39:00.384Z,14.50
2022-11-29T23:41:27.041Z,14.95
2022-11-29T23:43:53.747Z,13.52
2022-11-29T23:46:22.598Z,15.77
2022-11-29T23:48:49.440Z,14.15
2022-11-29T23:51:16.766Z,14.88
2022-11-29T23:53:43.870Z,16.38
2022-11-29T23:56:15.285Z,16.98
2022-11-29T23:58:42.710Z,14.85
